Time;durP1;ratioP1;P1;durP2;ratioP2;P2;SDS_P1;SDS_P2;PMS_P1;PMS_P2;Temp;Humidity;BMP_temperature;BMP_pressure;BME280_temperature;BME280_humidity;BME280_pressure;Samples;Min_cycle;Max_cycle;Signal;HPM_P1;HPM_P2
2021/10/09 00:01:08;;;;;;;39.6;35.5;;;;;;;11.1;79.6;102670;;;;
2021/10/09 00:03:08;;;;;;;39.6;35.5;;;;;;;11.0;79.8;102680;;;;
2021/10/09 00:11:14;;;;;;;39.6;35.5;;;;;;;10.9;79.5;102670;;;;
2021/10/09 00:13:08;;;;;;;39.6;35.5;;;;;;;11.0;79.2;102670;;;;
2021/10/09 00:15:08;;;;;;;39.2;34.9;;;;;;;11.1;79.6;102670;;;;
2021/10/09 00:17:09;;;;;;;39.2;34.9;;;;;;;11.0;79.3;102670;;;;
2021/10/09 00:23:08;;;;;;;39.2;34.9;;;;;;;10.9;79.3;102670;;;;
2021/10/09 00:31:08;;;;;;;39.2;34.9;;;;;;;10.8;80.1;102670;;;;
2021/10/09 00:33:08;;;;;;;39.7;35.5;;;;;;;10.9;79.8;102670;;;;
2021/10/09 00:41:08;;;;;;;39.7;35.5;;;;;;;10.8;80.5;102670;;;;
2021/10/09 00:47:08;;;;;;;39.7;35.5;;;;;;;10.9;80.3;102670;;;;
2021/10/09 00:49:08;;;;;;;39.7;35.5;;;;;;;10.8;80.7;102660;;;;
2021/10/09 00:51:08;;;;;;;39.7;35.5;;;;;;;10.7;80.5;102660;;;;
2021/10/09 00:53:08;;;;;;;40.8;36.4;;;;;;;10.8;80.2;102660;;;;
2021/10/09 00:55:08;;;;;;;40.8;36.4;;;;;;;10.9;79.8;102660;;;;
2021/10/09 00:59:08;;;;;;;40.8;36.4;;;;;;;10.8;80.1;102660;;;;
2021/10/09 01:01:08;;;;;;;40.8;36.4;;;;;;;10.7;79.8;102670;;;;
2021/10/09 01:05:08;;;;;;;40.8;36.4;;;;;;;10.6;80.4;102670;;;;
2021/10/09 01:09:08;;;;;;;40.8;36.4;;;;;;;10.7;80.4;102660;;;;
2021/10/09 01:15:08;;;;;;;40.5;36.1;;;;;;;10.6;80.2;102660;;;;
2021/10/09 01:19:08;;;;;;;40.5;36.1;;;;;;;10.7;80.0;102660;;;;
2021/10/09 01:21:08;;;;;;;40.5;36.1;;;;;;;10.6;79.8;102660;;;;
2021/10/09 01:29:08;;;;;;;40.5;36.1;;;;;;;10.5;80.3;102660;;;;
2021/10/09 01:41:08;;;;;;;42.7;38.0;;;;;;;10.4;80.5;102660;;;;
2021/10/09 01:43:08;;;;;;;42.7;38.0;;;;;;;10.5;80.9;102660;;;;
2021/10/09 01:45:08;;;;;;;42.7;38.0;;;;;;;10.4;81.3;102660;;;;
2021/10/09 01:51:08;;;;;;;42.7;38.0;;;;;;;10.3;81.0;102650;;;;
2021/10/09 01:53:08;;;;;;;44.2;38.4;;;;;;;10.4;80.3;102650;;;;
2021/10/09 01:57:08;;;;;;;44.2;38.4;;;;;;;10.3;80.8;102650;;;;
2021/10/09 01:59:08;;;;;;;44.2;38.4;;;;;;;10.4;80.6;102650;;;;
2021/10/09 02:05:08;;;;;;;44.2;38.4;;;;;;;10.3;80.4;102650;;;;
2021/10/09 02:09:08;;;;;;;44.2;38.4;;;;;;;10.4;80.2;102640;;;;
2021/10/09 02:11:11;;;;;;;44.2;38.4;;;;;;;10.3;80.2;102640;;;;
2021/10/09 02:17:25;;;;;;;45.2;39.3;;;;;;;10.3;80.7;102640;;;;
2021/10/09 02:24:08;;;;;;;45.2;39.3;;;;;;;10.2;80.1;102640;;;;
2021/10/09 02:27:08;;;;;;;45.2;39.3;;;;;;;10.2;80.5;102640;;;;
2021/10/09 02:31:08;;;;;;;45.2;39.3;;;;;;;10.1;80.9;102640;;;;
2021/10/09 02:37:08;;;;;;;48.9;41.7;;;;;;;10.0;81.2;102640;;;;
2021/10/09 02:39:08;;;;;;;48.9;41.7;;;;;;;10.1;80.9;102630;;;;
2021/10/09 02:43:08;;;;;;;48.9;41.7;;;;;;;10.0;80.5;102630;;;;
2021/10/09 02:45:08;;;;;;;48.9;41.7;;;;;;;9.9;81.4;102640;;;;
2021/10/09 02:47:08;;;;;;;48.9;41.7;;;;;;;10.0;80.9;102630;;;;
2021/10/09 02:49:08;;;;;;;48.9;41.7;;;;;;;9.9;81.3;102630;;;;
2021/10/09 02:53:08;;;;;;;49.9;43.1;;;;;;;10.0;80.5;102630;;;;
2021/10/09 02:55:08;;;;;;;49.9;43.1;;;;;;;9.9;80.9;102630;;;;
2021/10/09 03:01:08;;;;;;;49.9;43.1;;;;;;;9.8;81.2;102630;;;;
2021/10/09 03:03:08;;;;;;;49.9;43.1;;;;;;;9.9;80.9;102630;;;;
2021/10/09 03:05:08;;;;;;;49.9;43.1;;;;;;;9.8;81.3;102630;;;;
2021/10/09 03:13:08;;;;;;;51.5;44.3;;;;;;;9.9;80.8;102630;;;;
2021/10/09 03:15:08;;;;;;;51.5;44.3;;;;;;;9.8;80.6;102640;;;;
2021/10/09 03:21:08;;;;;;;51.5;44.3;;;;;;;9.7;81.5;102640;;;;
2021/10/09 03:25:08;;;;;;;51.5;44.3;;;;;;;9.6;82.0;102640;;;;
2021/10/09 03:27:08;;;;;;;51.5;44.3;;;;;;;9.5;82.5;102640;;;;
2021/10/09 03:29:08;;;;;;;51.5;44.3;;;;;;;9.6;82.3;102630;;;;
2021/10/09 03:33:08;;;;;;;51.6;43.7;;;;;;;9.7;81.0;102640;;;;
2021/10/09 03:35:08;;;;;;;51.6;43.7;;;;;;;9.6;80.9;102640;;;;
2021/10/09 03:55:08;;;;;;;54.8;44.5;;;;;;;9.6;80.5;102640;;;;
2021/10/09 03:57:08;;;;;;;54.8;44.5;;;;;;;9.4;81.3;102640;;;;
2021/10/09 04:01:08;;;;;;;54.8;44.5;;;;;;;9.3;82.0;102640;;;;
2021/10/09 04:05:08;;;;;;;54.8;44.5;;;;;;;9.2;82.0;102640;;;;
2021/10/09 04:07:08;;;;;;;54.8;44.5;;;;;;;9.3;82.0;102640;;;;
2021/10/09 04:09:08;;;;;;;54.8;44.5;;;;;;;9.2;82.5;102640;;;;
2021/10/09 04:13:08;;;;;;;56.8;44.9;;;;;;;9.3;81.6;102640;;;;
2021/10/09 04:23:08;;;;;;;56.8;44.9;;;;;;;9.2;81.9;102640;;;;
2021/10/09 04:25:08;;;;;;;56.8;44.9;;;;;;;9.3;81.7;102640;;;;
2021/10/09 04:27:08;;;;;;;56.8;44.9;;;;;;;9.1;82.3;102630;;;;
2021/10/09 04:29:08;;;;;;;56.8;44.9;;;;;;;9.3;81.4;102640;;;;
2021/10/09 04:31:08;;;;;;;56.8;44.9;;;;;;;9.2;81.3;102640;;;;
2021/10/09 04:33:08;;;;;;;60.0;46.0;;;;;;;9.3;80.8;102640;;;;
2021/10/09 04:35:08;;;;;;;60.0;46.0;;;;;;;9.2;80.8;102640;;;;
2021/10/09 04:41:08;;;;;;;60.0;46.0;;;;;;;9.1;81.0;102640;;;;
2021/10/09 04:43:08;;;;;;;60.0;46.0;;;;;;;9.0;82.3;102640;;;;
2021/10/09 04:47:08;;;;;;;60.0;46.0;;;;;;;9.1;81.3;102640;;;;
2021/10/09 04:53:08;;;;;;;55.2;43.7;;;;;;;8.9;81.5;102640;;;;
2021/10/09 04:55:08;;;;;;;55.2;43.7;;;;;;;9.1;81.1;102640;;;;
2021/10/09 04:57:08;;;;;;;55.2;43.7;;;;;;;9.0;81.1;102640;;;;
2021/10/09 05:01:08;;;;;;;55.2;43.7;;;;;;;8.9;81.1;102640;;;;
2021/10/09 05:09:08;;;;;;;55.2;43.7;;;;;;;8.8;82.1;102640;;;;
2021/10/09 05:13:08;;;;;;;59.8;45.7;;;;;;;8.7;82.2;102640;;;;
2021/10/09 05:17:09;;;;;;;59.8;45.7;;;;;;;8.9;81.6;102650;;;;
2021/10/09 05:19:08;;;;;;;59.8;45.7;;;;;;;8.8;82.2;102640;;;;
2021/10/09 05:21:08;;;;;;;59.8;45.7;;;;;;;8.6;83.2;102640;;;;
2021/10/09 05:25:08;;;;;;;59.8;45.7;;;;;;;8.7;82.1;102650;;;;
2021/10/09 05:27:08;;;;;;;59.8;45.7;;;;;;;8.8;81.8;102650;;;;
2021/10/09 05:29:14;;;;;;;59.8;45.7;;;;;;;8.7;82.5;102650;;;;
2021/10/09 05:31:10;;;;;;;59.8;45.7;;;;;;;8.5;83.3;102650;;;;
2021/10/09 05:35:08;;;;;;;58.4;47.3;;;;;;;8.6;82.8;102650;;;;
2021/10/09 05:37:08;;;;;;;58.4;47.3;;;;;;;8.7;82.0;102650;;;;
2021/10/09 05:41:08;;;;;;;58.4;47.3;;;;;;;8.6;81.4;102660;;;;
2021/10/09 05:49:08;;;;;;;58.4;47.3;;;;;;;8.7;81.0;102660;;;;
2021/10/09 05:55:14;;;;;;;57.9;45.8;;;;;;;8.4;82.4;102660;;;;
2021/10/09 05:57:13;;;;;;;57.9;45.8;;;;;;;8.3;83.3;102670;;;;
2021/10/09 06:01:29;;;;;;;57.9;45.8;;;;;;;8.4;83.5;102660;;;;
2021/10/09 07:01:08;;;;;;;63.7;49.2;;;;;;;8.5;83.4;102690;;;;
2021/10/09 07:05:08;;;;;;;63.7;49.2;;;;;;;8.6;83.7;102690;;;;
2021/10/09 07:07:10;;;;;;;63.7;49.2;;;;;;;8.5;83.6;102700;;;;
2021/10/09 07:09:08;;;;;;;63.7;49.2;;;;;;;8.6;83.9;102700;;;;
2021/10/09 07:17:08;;;;;;;67.8;51.8;;;;;;;8.7;84.0;102700;;;;
2021/10/09 07:19:08;;;;;;;67.8;51.8;;;;;;;8.8;84.2;102700;;;;
2021/10/09 07:23:09;;;;;;;67.8;51.8;;;;;;;8.9;83.4;102700;;;;
2021/10/09 07:27:08;;;;;;;67.8;51.8;;;;;;;9.0;83.1;102710;;;;
2021/10/09 07:37:08;;;;;;;65.8;52.3;;;;;;;9.1;84.0;102710;;;;
2021/10/09 07:41:08;;;;;;;65.8;52.3;;;;;;;9.3;83.8;102720;;;;
2021/10/09 07:43:08;;;;;;;65.8;52.3;;;;;;;9.1;84.2;102710;;;;
2021/10/09 07:45:08;;;;;;;65.8;52.3;;;;;;;9.3;84.3;102710;;;;
2021/10/09 07:49:08;;;;;;;65.8;52.3;;;;;;;9.4;84.4;102720;;;;
2021/10/09 07:53:08;;;;;;;63.4;50.4;;;;;;;9.6;84.3;102730;;;;
2021/10/09 07:57:08;;;;;;;63.4;50.4;;;;;;;9.7;84.2;102720;;;;
2021/10/09 08:01:08;;;;;;;63.4;50.4;;;;;;;9.8;83.7;102730;;;;
2021/10/09 08:05:08;;;;;;;63.4;50.4;;;;;;;10.0;83.7;102730;;;;
2021/10/09 08:09:08;;;;;;;63.4;50.4;;;;;;;10.1;83.7;102730;;;;
2021/10/09 08:11:08;;;;;;;63.4;50.4;;;;;;;10.2;83.9;102730;;;;
2021/10/09 08:13:08;;;;;;;58.6;48.9;;;;;;;10.3;83.4;102740;;;;
2021/10/09 08:15:09;;;;;;;58.6;48.9;;;;;;;10.5;83.4;102740;;;;
2021/10/09 08:17:08;;;;;;;58.6;48.9;;;;;;;10.6;83.4;102730;;;;
2021/10/09 08:19:08;;;;;;;58.6;48.9;;;;;;;10.7;83.0;102730;;;;
2021/10/09 08:21:08;;;;;;;58.6;48.9;;;;;;;10.8;82.9;102730;;;;
2021/10/09 08:23:14;;;;;;;58.6;48.9;;;;;;;10.9;82.7;102730;;;;
2021/10/09 08:37:21;;;;;;;50.8;43.0;;;;;;;11.3;80.8;102740;;;;
2021/10/09 08:41:08;;;;;;;50.8;43.0;;;;;;;11.2;81.0;102740;;;;
2021/10/09 08:45:08;;;;;;;50.8;43.0;;;;;;;11.4;81.4;102740;;;;
2021/10/09 08:47:11;;;;;;;50.8;43.0;;;;;;;11.5;80.5;102750;;;;
2021/10/09 08:49:08;;;;;;;50.8;43.0;;;;;;;11.4;81.2;102750;;;;
2021/10/09 08:51:08;;;;;;;50.8;43.0;;;;;;;11.5;80.6;102750;;;;
2021/10/09 09:01:15;;;;;;;45.3;39.6;;;;;;;11.4;80.4;102750;;;;
2021/10/09 09:03:12;;;;;;;45.3;39.6;;;;;;;11.6;79.8;102750;;;;
2021/10/09 09:05:16;;;;;;;45.3;39.6;;;;;;;11.7;79.6;102760;;;;
2021/10/09 09:09:17;;;;;;;45.3;39.6;;;;;;;11.7;80.2;102750;;;;
2021/10/09 09:33:17;;;;;;;41.8;37.5;;;;;;;12.2;79.6;102740;;;;
2021/10/09 09:37:13;;;;;;;41.8;37.5;;;;;;;12.2;77.5;102740;;;;
2021/10/09 09:39:09;;;;;;;41.8;37.5;;;;;;;12.4;77.0;102750;;;;
2021/10/09 09:45:10;;;;;;;41.8;37.5;;;;;;;12.5;78.0;102740;;;;
2021/10/09 09:47:18;;;;;;;41.8;37.5;;;;;;;12.6;78.3;102730;;;;
2021/10/09 09:49:09;;;;;;;41.8;37.5;;;;;;;12.4;77.9;102730;;;;
2021/10/09 09:51:08;;;;;;;40.8;36.4;;;;;;;12.5;78.8;102730;;;;
2021/10/09 09:53:08;;;;;;;40.8;36.4;;;;;;;12.6;77.4;102730;;;;
2021/10/09 09:55:08;;;;;;;40.8;36.4;;;;;;;12.5;77.8;102730;;;;
2021/10/09 09:57:08;;;;;;;40.8;36.4;;;;;;;12.6;77.7;102730;;;;
2021/10/09 10:01:08;;;;;;;40.8;36.4;;;;;;;12.7;78.0;102730;;;;
2021/10/09 10:05:08;;;;;;;40.8;36.4;;;;;;;12.8;78.0;102720;;;;
2021/10/09 10:07:08;;;;;;;40.8;36.4;;;;;;;12.9;77.2;102720;;;;
2021/10/09 10:11:08;;;;;;;41.0;36.5;;;;;;;13.1;76.8;102720;;;;
2021/10/09 10:17:08;;;;;;;41.0;36.5;;;;;;;13.2;76.6;102730;;;;
2021/10/09 10:25:09;;;;;;;41.0;36.5;;;;;;;13.4;76.3;102720;;;;
2021/10/09 10:27:08;;;;;;;41.0;36.5;;;;;;;13.3;75.5;102720;;;;
2021/10/09 10:29:08;;;;;;;41.0;36.5;;;;;;;13.4;76.2;102720;;;;
2021/10/09 10:31:08;;;;;;;37.8;33.9;;;;;;;13.5;75.9;102720;;;;
2021/10/09 10:35:10;;;;;;;37.8;33.9;;;;;;;13.7;75.2;102720;;;;
2021/10/09 10:37:08;;;;;;;37.8;33.9;;;;;;;13.6;75.8;102720;;;;
2021/10/09 10:43:08;;;;;;;37.8;33.9;;;;;;;13.7;75.8;102720;;;;
2021/10/09 10:47:08;;;;;;;37.8;33.9;;;;;;;13.7;75.4;102710;;;;
2021/10/09 10:49:20;;;;;;;37.8;33.9;;;;;;;13.9;75.0;102710;;;;
2021/10/09 10:57:08;;;;;;;38.8;34.2;;;;;;;14.0;75.5;102710;;;;
2021/10/09 10:59:08;;;;;;;38.8;34.2;;;;;;;14.1;75.2;102710;;;;
2021/10/09 11:01:08;;;;;;;38.8;34.2;;;;;;;14.2;74.0;102710;;;;
2021/10/09 11:03:08;;;;;;;38.8;34.2;;;;;;;14.1;74.0;102710;;;;
2021/10/09 11:11:08;;;;;;;37.2;33.4;;;;;;;14.2;72.5;102710;;;;
2021/10/09 11:17:08;;;;;;;37.2;33.4;;;;;;;14.3;73.0;102700;;;;
2021/10/09 11:21:09;;;;;;;37.2;33.4;;;;;;;14.4;72.2;102700;;;;
2021/10/09 11:25:08;;;;;;;37.2;33.4;;;;;;;14.2;72.2;102690;;;;
2021/10/09 11:27:08;;;;;;;37.2;33.4;;;;;;;14.4;73.1;102700;;;;
2021/10/09 11:29:08;;;;;;;37.2;33.4;;;;;;;14.5;72.0;102700;;;;
2021/10/09 11:33:08;;;;;;;35.8;32.0;;;;;;;14.7;70.8;102690;;;;
2021/10/09 11:35:08;;;;;;;35.8;32.0;;;;;;;14.6;71.2;102700;;;;
2021/10/09 11:37:08;;;;;;;35.8;32.0;;;;;;;14.5;69.3;102690;;;;
2021/10/09 11:39:11;;;;;;;35.8;32.0;;;;;;;14.6;69.8;102690;;;;
2021/10/09 11:43:21;;;;;;;35.8;32.0;;;;;;;14.7;71.2;102690;;;;
2021/10/09 11:45:14;;;;;;;35.8;32.0;;;;;;;14.9;72.1;102690;;;;
2021/10/09 11:55:08;;;;;;;36.1;32.5;;;;;;;15.1;71.3;102680;;;;
2021/10/09 11:59:08;;;;;;;36.1;32.5;;;;;;;15.3;68.4;102680;;;;
2021/10/09 12:09:09;;;;;;;36.1;32.5;;;;;;;15.5;68.9;102680;;;;
2021/10/09 12:11:09;;;;;;;33.2;29.7;;;;;;;15.6;69.1;102680;;;;
2021/10/09 12:13:08;;;;;;;33.2;29.7;;;;;;;15.4;68.4;102680;;;;
2021/10/09 12:15:08;;;;;;;33.2;29.7;;;;;;;15.5;68.9;102680;;;;
2021/10/09 12:17:08;;;;;;;33.2;29.7;;;;;;;15.6;68.9;102680;;;;
2021/10/09 12:19:12;;;;;;;33.2;29.7;;;;;;;15.4;68.6;102680;;;;
2021/10/09 12:23:10;;;;;;;33.2;29.7;;;;;;;15.6;66.8;102670;;;;
2021/10/09 12:25:08;;;;;;;33.2;29.7;;;;;;;15.5;67.9;102670;;;;
2021/10/09 12:35:10;;;;;;;31.7;28.5;;;;;;;15.6;67.8;102660;;;;
2021/10/09 12:37:08;;;;;;;31.7;28.5;;;;;;;15.7;67.2;102660;;;;
2021/10/09 12:43:10;;;;;;;31.7;28.5;;;;;;;15.5;66.0;102660;;;;
2021/10/09 12:45:18;;;;;;;31.7;28.5;;;;;;;15.7;67.2;102650;;;;
2021/10/09 12:47:08;;;;;;;31.7;28.5;;;;;;;15.8;66.8;102650;;;;
2021/10/09 12:51:08;;;;;;;28.9;25.9;;;;;;;15.9;67.1;102650;;;;
2021/10/09 12:53:08;;;;;;;28.9;25.9;;;;;;;15.8;65.7;102650;;;;
2021/10/09 12:55:08;;;;;;;28.9;25.9;;;;;;;15.9;63.9;102640;;;;
2021/10/09 12:59:08;;;;;;;28.9;25.9;;;;;;;16.1;66.8;102640;;;;
2021/10/09 13:01:08;;;;;;;28.9;25.9;;;;;;;15.9;64.6;102640;;;;
2021/10/09 13:07:08;;;;;;;28.9;25.9;;;;;;;16.1;63.5;102630;;;;
2021/10/09 13:09:08;;;;;;;28.9;25.9;;;;;;;16.2;64.5;102630;;;;
2021/10/09 13:11:08;;;;;;;28.2;25.4;;;;;;;16.1;64.3;102630;;;;
2021/10/09 13:13:08;;;;;;;28.2;25.4;;;;;;;16.0;65.6;102630;;;;
2021/10/09 13:19:08;;;;;;;28.2;25.4;;;;;;;15.9;64.5;102630;;;;
2021/10/09 13:23:11;;;;;;;28.2;25.4;;;;;;;16.0;63.3;102630;;;;
2021/10/09 13:25:08;;;;;;;28.2;25.4;;;;;;;15.9;63.2;102630;;;;
2021/10/09 13:27:08;;;;;;;28.2;25.4;;;;;;;16.0;64.7;102620;;;;
2021/10/09 13:29:08;;;;;;;28.2;25.4;;;;;;;16.2;64.8;102620;;;;
2021/10/09 13:35:08;;;;;;;29.0;25.3;;;;;;;16.3;64.8;102620;;;;
2021/10/09 13:39:08;;;;;;;29.0;25.3;;;;;;;16.4;65.3;102620;;;;
2021/10/09 13:41:10;;;;;;;29.0;25.3;;;;;;;16.3;64.0;102620;;;;
2021/10/09 13:43:11;;;;;;;29.0;25.3;;;;;;;16.4;64.2;102610;;;;
2021/10/09 13:57:08;;;;;;;26.1;23.4;;;;;;;16.5;65.4;102610;;;;
2021/10/09 14:03:09;;;;;;;26.1;23.4;;;;;;;16.6;63.9;102610;;;;
2021/10/09 14:11:08;;;;;;;26.1;23.4;;;;;;;16.5;63.4;102610;;;;
2021/10/09 14:13:11;;;;;;;26.1;23.4;;;;;;;16.6;64.0;102610;;;;
2021/10/09 14:25:08;;;;;;;26.1;23.4;;;;;;;16.7;63.8;102600;;;;
2021/10/09 14:27:08;;;;;;;26.1;23.4;;;;;;;16.6;63.4;102600;;;;
2021/10/09 14:33:08;;;;;;;25.6;22.9;;;;;;;16.5;62.5;102600;;;;
2021/10/09 14:39:09;;;;;;;25.6;22.9;;;;;;;16.6;63.4;102590;;;;
2021/10/09 14:43:08;;;;;;;25.6;22.9;;;;;;;16.5;61.8;102590;;;;
2021/10/09 15:17:31;;;;;;;24.5;21.9;;;;;;;16.5;62.6;102570;;;;
2021/10/09 15:21:08;;;;;;;24.5;21.9;;;;;;;16.4;63.6;102560;;;;
2021/10/09 15:23:09;;;;;;;24.5;21.9;;;;;;;16.3;63.7;102560;;;;
2021/10/09 15:25:08;;;;;;;24.5;21.9;;;;;;;16.2;63.3;102570;;;;
2021/10/09 15:27:08;;;;;;;24.5;21.9;;;;;;;16.3;64.4;102560;;;;
2021/10/09 15:33:08;;;;;;;26.0;23.2;;;;;;;16.4;65.6;102560;;;;
2021/10/09 15:35:08;;;;;;;26.0;23.2;;;;;;;16.5;65.4;102560;;;;
2021/10/09 15:37:08;;;;;;;26.0;23.2;;;;;;;16.4;66.1;102560;;;;
2021/10/09 15:47:08;;;;;;;26.0;23.2;;;;;;;16.5;65.4;102560;;;;
2021/10/09 15:51:08;;;;;;;27.6;24.6;;;;;;;16.3;66.0;102560;;;;
2021/10/09 15:57:09;;;;;;;27.6;24.6;;;;;;;16.4;66.1;102560;;;;
2021/10/09 15:59:08;;;;;;;27.6;24.6;;;;;;;16.3;66.2;102550;;;;
2021/10/09 16:03:08;;;;;;;27.6;24.6;;;;;;;16.2;66.4;102550;;;;
2021/10/09 16:09:08;;;;;;;27.6;24.6;;;;;;;16.1;66.4;102540;;;;
2021/10/09 16:15:08;;;;;;;27.8;24.9;;;;;;;16.0;67.0;102550;;;;
2021/10/09 16:17:08;;;;;;;27.8;24.9;;;;;;;16.1;67.6;102550;;;;
2021/10/09 16:19:08;;;;;;;27.8;24.9;;;;;;;16.0;66.2;102550;;;;
2021/10/09 16:21:08;;;;;;;27.8;24.9;;;;;;;16.1;66.4;102550;;;;
2021/10/09 16:23:08;;;;;;;27.8;24.9;;;;;;;15.9;67.6;102560;;;;
2021/10/09 16:25:08;;;;;;;27.8;24.9;;;;;;;15.8;67.8;102560;;;;
2021/10/09 16:31:09;;;;;;;26.7;24.0;;;;;;;15.9;68.7;102560;;;;
2021/10/09 16:33:08;;;;;;;26.7;24.0;;;;;;;15.8;69.0;102560;;;;
2021/10/09 16:35:08;;;;;;;26.7;24.0;;;;;;;15.7;67.4;102560;;;;
2021/10/09 16:39:08;;;;;;;26.7;24.0;;;;;;;15.6;68.8;102560;;;;
2021/10/09 16:45:08;;;;;;;26.7;24.0;;;;;;;15.5;68.5;102560;;;;
2021/10/09 16:49:08;;;;;;;26.7;24.0;;;;;;;15.4;68.7;102560;;;;
2021/10/09 16:53:08;;;;;;;27.1;24.3;;;;;;;15.3;68.3;102570;;;;
2021/10/09 16:55:08;;;;;;;27.1;24.3;;;;;;;15.4;70.1;102560;;;;
2021/10/09 16:57:09;;;;;;;27.1;24.3;;;;;;;15.3;69.0;102560;;;;
2021/10/09 17:01:08;;;;;;;27.1;24.3;;;;;;;15.2;70.3;102560;;;;
2021/10/09 17:03:08;;;;;;;27.1;24.3;;;;;;;15.1;69.3;102560;;;;
2021/10/09 17:07:08;;;;;;;27.1;24.3;;;;;;;15.0;70.2;102570;;;;
2021/10/09 17:09:08;;;;;;;27.1;24.3;;;;;;;14.8;70.4;102570;;;;
2021/10/09 17:11:08;;;;;;;28.0;25.1;;;;;;;14.9;69.6;102570;;;;
2021/10/09 17:13:08;;;;;;;28.0;25.1;;;;;;;15.0;70.7;102560;;;;
2021/10/09 17:19:08;;;;;;;28.0;25.1;;;;;;;14.9;70.7;102560;;;;
2021/10/09 17:21:08;;;;;;;28.0;25.1;;;;;;;14.8;70.8;102560;;;;
2021/10/09 17:25:08;;;;;;;28.0;25.1;;;;;;;14.6;71.1;102570;;;;
2021/10/09 17:27:08;;;;;;;28.0;25.1;;;;;;;14.7;71.3;102570;;;;
2021/10/09 17:31:08;;;;;;;29.9;26.3;;;;;;;14.8;70.6;102570;;;;
2021/10/09 17:33:08;;;;;;;29.9;26.3;;;;;;;14.7;70.2;102570;;;;
2021/10/09 17:37:08;;;;;;;29.9;26.3;;;;;;;14.6;70.6;102570;;;;
2021/10/09 17:39:08;;;;;;;29.9;26.3;;;;;;;14.4;69.2;102570;;;;
2021/10/09 17:41:08;;;;;;;29.9;26.3;;;;;;;14.6;70.8;102580;;;;
2021/10/09 17:45:08;;;;;;;29.9;26.3;;;;;;;14.4;71.0;102570;;;;
2021/10/09 17:49:08;;;;;;;29.9;26.3;;;;;;;14.3;71.3;102580;;;;
2021/10/09 17:51:08;;;;;;;31.0;27.6;;;;;;;14.2;71.3;102570;;;;
2021/10/09 17:53:08;;;;;;;31.0;27.6;;;;;;;14.3;71.8;102570;;;;
2021/10/09 17:57:08;;;;;;;31.0;27.6;;;;;;;14.1;71.8;102560;;;;
2021/10/09 17:59:08;;;;;;;31.0;27.6;;;;;;;14.2;72.0;102570;;;;
2021/10/09 18:11:08;;;;;;;32.9;28.4;;;;;;;14.1;70.8;102570;;;;
2021/10/09 18:13:08;;;;;;;32.9;28.4;;;;;;;14.0;70.7;102560;;;;
2021/10/09 18:17:08;;;;;;;32.9;28.4;;;;;;;13.6;71.2;102560;;;;
2021/10/09 18:19:08;;;;;;;32.9;28.4;;;;;;;13.8;72.2;102570;;;;
2021/10/09 18:23:08;;;;;;;32.9;28.4;;;;;;;13.6;72.1;102570;;;;
2021/10/09 18:25:08;;;;;;;32.9;28.4;;;;;;;13.7;72.4;102570;;;;
2021/10/09 18:31:08;;;;;;;33.1;29.5;;;;;;;13.6;71.8;102560;;;;
2021/10/09 18:33:08;;;;;;;33.1;29.5;;;;;;;13.4;72.0;102560;;;;
2021/10/09 18:35:08;;;;;;;33.1;29.5;;;;;;;13.5;72.0;102560;;;;
2021/10/09 18:39:08;;;;;;;33.1;29.5;;;;;;;13.6;71.6;102560;;;;
2021/10/09 18:43:08;;;;;;;33.1;29.5;;;;;;;13.5;71.1;102570;;;;
2021/10/09 18:45:08;;;;;;;33.1;29.5;;;;;;;13.4;71.2;102560;;;;
2021/10/09 18:49:08;;;;;;;33.1;29.5;;;;;;;13.5;71.9;102570;;;;
2021/10/09 18:53:08;;;;;;;33.8;30.1;;;;;;;13.4;72.3;102570;;;;
2021/10/09 19:01:08;;;;;;;33.8;30.1;;;;;;;13.3;72.1;102570;;;;
2021/10/09 19:11:08;;;;;;;33.8;30.1;;;;;;;13.2;72.0;102570;;;;
2021/10/09 19:15:08;;;;;;;33.8;30.1;;;;;;;13.1;72.0;102570;;;;
2021/10/09 19:19:08;;;;;;;33.8;30.1;;;;;;;13.2;71.4;102570;;;;
2021/10/09 19:21:08;;;;;;;33.8;30.1;;;;;;;13.1;71.7;102570;;;;
2021/10/09 19:27:08;;;;;;;33.8;30.1;;;;;;;13.0;71.8;102560;;;;
2021/10/09 19:31:08;;;;;;;36.7;32.3;;;;;;;12.9;71.4;102560;;;;
2021/10/09 19:37:12;;;;;;;36.7;32.3;;;;;;;12.8;71.4;102560;;;;
2021/10/09 19:39:08;;;;;;;36.7;32.3;;;;;;;12.7;71.6;102560;;;;
2021/10/09 19:49:09;;;;;;;36.7;32.3;;;;;;;12.6;71.6;102560;;;;
2021/10/09 19:59:08;;;;;;;36.3;32.4;;;;;;;12.5;72.0;102570;;;;
2021/10/09 20:03:08;;;;;;;36.3;32.4;;;;;;;12.4;72.4;102570;;;;
2021/10/09 20:11:11;;;;;;;36.5;32.5;;;;;;;12.3;72.5;102570;;;;
2021/10/09 20:21:08;;;;;;;36.5;32.5;;;;;;;12.2;72.1;102570;;;;
2021/10/09 20:27:08;;;;;;;36.5;32.5;;;;;;;12.1;72.5;102570;;;;
2021/10/09 20:35:08;;;;;;;36.9;31.9;;;;;;;12.0;72.8;102570;;;;
2021/10/09 20:41:08;;;;;;;36.9;31.9;;;;;;;11.9;72.6;102580;;;;
2021/10/09 20:49:08;;;;;;;36.9;31.9;;;;;;;11.8;72.8;102570;;;;
2021/10/09 20:51:08;;;;;;;34.7;30.1;;;;;;;11.9;72.5;102580;;;;
2021/10/09 20:53:08;;;;;;;34.7;30.1;;;;;;;11.8;72.5;102580;;;;
2021/10/09 20:55:08;;;;;;;34.7;30.1;;;;;;;11.7;72.8;102580;;;;
2021/10/09 21:05:08;;;;;;;34.7;30.1;;;;;;;11.6;72.2;102570;;;;
2021/10/09 21:09:17;;;;;;;34.7;30.1;;;;;;;11.5;73.8;102580;;;;
2021/10/09 21:33:08;;;;;;;38.1;33.9;;;;;;;11.3;72.5;102560;;;;
2021/10/09 21:37:08;;;;;;;38.1;33.9;;;;;;;11.2;73.3;102550;;;;
2021/10/09 21:41:08;;;;;;;38.1;33.9;;;;;;;11.1;73.5;102550;;;;
2021/10/09 21:43:08;;;;;;;38.1;33.9;;;;;;;11.0;73.9;102560;;;;
2021/10/09 21:47:08;;;;;;;38.1;33.9;;;;;;;11.1;73.5;102550;;;;
2021/10/09 21:53:08;;;;;;;35.9;32.0;;;;;;;11.0;73.3;102550;;;;
2021/10/09 21:55:08;;;;;;;35.9;32.0;;;;;;;10.9;73.8;102550;;;;
2021/10/09 22:33:08;;;;;;;36.2;32.3;;;;;;;10.5;73.4;102550;;;;
2021/10/09 22:35:08;;;;;;;36.2;32.3;;;;;;;10.4;73.9;102550;;;;
2021/10/09 22:39:08;;;;;;;36.2;32.3;;;;;;;10.5;73.8;102560;;;;
2021/10/09 22:41:09;;;;;;;36.2;32.3;;;;;;;10.4;73.1;102550;;;;
2021/10/09 22:43:08;;;;;;;36.2;32.3;;;;;;;10.5;73.8;102550;;;;
2021/10/09 22:45:08;;;;;;;36.2;32.3;;;;;;;10.4;73.7;102560;;;;
2021/10/09 22:53:08;;;;;;;38.6;33.9;;;;;;;10.2;74.6;102550;;;;
2021/10/09 22:57:08;;;;;;;38.6;33.9;;;;;;;10.1;74.6;102550;;;;
2021/10/09 22:59:08;;;;;;;38.6;33.9;;;;;;;10.2;74.0;102550;;;;
2021/10/09 23:01:08;;;;;;;38.6;33.9;;;;;;;10.3;73.9;102550;;;;
2021/10/09 23:03:09;;;;;;;38.6;33.9;;;;;;;10.2;73.6;102550;;;;
2021/10/09 23:11:08;;;;;;;34.7;31.1;;;;;;;10.1;73.9;102550;;;;
2021/10/09 23:13:08;;;;;;;34.7;31.1;;;;;;;10.0;74.8;102560;;;;
2021/10/09 23:19:08;;;;;;;34.7;31.1;;;;;;;9.8;74.8;102550;;;;
2021/10/09 23:21:08;;;;;;;34.7;31.1;;;;;;;9.9;74.7;102550;;;;
2021/10/09 23:27:08;;;;;;;34.7;31.1;;;;;;;10.0;74.3;102550;;;;
2021/10/09 23:31:08;;;;;;;36.0;32.1;;;;;;;9.9;74.5;102550;;;;
2021/10/09 23:35:08;;;;;;;36.0;32.1;;;;;;;9.8;74.3;102550;;;;
2021/10/09 23:37:08;;;;;;;36.0;32.1;;;;;;;9.7;74.7;102550;;;;
2021/10/09 23:39:08;;;;;;;36.0;32.1;;;;;;;9.8;74.6;102550;;;;
2021/10/09 23:41:08;;;;;;;36.0;32.1;;;;;;;9.9;74.1;102540;;;;
2021/10/09 23:47:08;;;;;;;36.0;32.1;;;;;;;9.7;74.6;102540;;;;
2021/10/09 23:49:08;;;;;;;34.5;30.8;;;;;;;9.8;74.3;102540;;;;
2021/10/09 23:51:08;;;;;;;34.5;30.8;;;;;;;9.7;74.9;102540;;;;
2021/10/09 23:53:08;;;;;;;34.5;30.8;;;;;;;9.3;75.4;102540;;;;
2021/10/09 23:55:08;;;;;;;34.5;30.8;;;;;;;9.5;75.3;102540;;;;
2021/10/09 23:57:08;;;;;;;34.5;30.8;;;;;;;9.6;74.6;102540;;;;
2021/10/09 23:59:08;;;;;;;34.5;30.8;;;;;;;9.7;74.2;102540;;;;
